createdAt,value
2023-05-12T00:00:37.626Z,10.70
2023-05-12T00:05:37.680Z,10.70
2023-05-12T00:10:37.618Z,10.70
2023-05-12T00:15:37.656Z,9.30
2023-05-12T00:25:37.840Z,9.30
2023-05-12T00:30:37.645Z,8.30
2023-05-12T00:50:37.656Z,8.10
2023-05-12T00:55:37.624Z,8.10
2023-05-12T01:00:37.690Z,6.50
2023-05-12T01:05:37.662Z,6.50
2023-05-12T01:10:37.655Z,6.50
2023-05-12T01:15:37.818Z,4.60
2023-05-12T01:20:37.660Z,4.60
2023-05-12T01:30:37.702Z,3.90
2023-05-12T02:00:37.649Z,6.50
2023-05-12T02:05:37.671Z,6.50
2023-05-12T02:10:37.672Z,6.50
2023-05-12T02:20:37.675Z,6.50
2023-05-12T02:30:37.707Z,7.40
2023-05-12T02:35:37.663Z,7.40
2023-05-12T02:40:37.688Z,7.40
2023-05-12T02:45:37.708Z,12.00
2023-05-12T02:50:37.678Z,12.00
2023-05-12T02:55:37.688Z,12.00
2023-05-12T03:00:37.705Z,13.40
2023-05-12T03:05:37.712Z,13.40
2023-05-12T03:20:37.690Z,14.30
2023-05-12T03:25:37.721Z,14.30
2023-05-12T03:30:37.717Z,19.90
2023-05-12T03:35:37.698Z,19.90
2023-05-12T03:55:37.703Z,14.40
2023-05-12T04:10:37.714Z,17.40
2023-05-12T04:15:37.684Z,22.20
2023-05-12T04:20:37.732Z,22.20
2023-05-12T04:25:37.701Z,22.20
2023-05-12T04:30:37.704Z,18.20
2023-05-12T04:35:37.722Z,18.20
2023-05-12T04:40:37.744Z,18.20
2023-05-12T04:45:37.736Z,22.90
2023-05-12T04:55:37.742Z,22.90
2023-05-12T05:00:37.752Z,24.30
2023-05-12T05:05:37.723Z,24.30
2023-05-12T05:10:37.727Z,24.30
2023-05-12T05:15:37.737Z,23.00
2023-05-12T05:25:37.728Z,23.00
2023-05-12T05:35:37.774Z,26.40
2023-05-12T05:40:51.562Z,26.40
2023-05-12T05:45:37.738Z,25.90
2023-05-12T05:55:37.723Z,25.90
2023-05-12T06:00:37.752Z,22.70
2023-05-12T06:10:37.760Z,22.70
2023-05-12T06:15:37.749Z,26.20
2023-05-12T06:20:37.752Z,26.20
2023-05-12T06:25:37.762Z,26.20
2023-05-12T06:30:37.766Z,17.60
2023-05-12T06:35:37.757Z,17.60
2023-05-12T06:40:37.770Z,17.60
2023-05-12T06:45:37.760Z,21.70
2023-05-12T06:50:37.776Z,21.70
2023-05-12T06:55:37.775Z,21.70
2023-05-12T07:00:37.760Z,15.40
2023-05-12T07:05:37.844Z,15.40
2023-05-12T07:15:37.759Z,9.80
2023-05-12T07:25:37.960Z,9.80
2023-05-12T07:35:37.804Z,11.40
2023-05-12T07:40:37.777Z,11.40
2023-05-12T07:45:37.805Z,9.20
2023-05-12T07:50:37.785Z,9.20
2023-05-12T07:55:37.798Z,9.20
2023-05-12T08:05:37.770Z,12.30
2023-05-12T08:10:37.805Z,12.30
2023-05-12T08:15:37.791Z,7.20
2023-05-12T08:25:37.774Z,7.20
2023-05-12T08:30:37.854Z,4.80
2023-05-12T08:35:37.810Z,4.80
2023-05-12T08:40:37.794Z,4.80
2023-05-12T08:45:37.793Z,4.40
2023-05-12T08:55:37.800Z,4.40
2023-05-12T09:00:37.859Z,3.90
2023-05-12T09:05:37.815Z,3.90
2023-05-12T09:10:37.794Z,3.90
2023-05-12T09:15:37.820Z,4.30
2023-05-12T09:20:37.827Z,4.30
2023-05-12T09:25:37.815Z,4.30
2023-05-12T09:30:37.810Z,2.20
2023-05-12T09:35:37.836Z,2.20
2023-05-12T09:40:37.826Z,2.20
2023-05-12T09:45:37.844Z,3.20
2023-05-12T09:50:46.874Z,3.20
2023-05-12T09:55:37.809Z,3.20
2023-05-12T10:05:37.820Z,2.50
2023-05-12T10:10:37.833Z,2.50
2023-05-12T10:20:37.831Z,2.40
2023-05-12T10:25:37.850Z,2.40
2023-05-12T10:30:37.847Z,4.50
2023-05-12T10:35:37.838Z,4.50
2023-05-12T10:40:37.857Z,4.50
2023-05-12T10:45:37.873Z,3.50
2023-05-12T10:50:37.836Z,3.50
2023-05-12T10:55:37.992Z,3.50
2023-05-12T11:00:38.102Z,4.70
2023-05-12T11:05:37.977Z,4.70
2023-05-12T11:10:37.900Z,4.70
2023-05-12T11:15:37.842Z,3.60
2023-05-12T11:20:37.917Z,3.60
2023-05-12T11:25:37.898Z,3.60
2023-05-12T11:30:37.875Z,3.50
2023-05-12T11:35:37.896Z,3.50
2023-05-12T11:40:37.869Z,3.50
2023-05-12T11:50:37.857Z,2.40
2023-05-12T11:55:37.888Z,2.40
2023-05-12T12:00:37.896Z,4.00
2023-05-12T12:05:37.880Z,4.00
2023-05-12T12:10:37.890Z,4.00
2023-05-12T12:15:37.916Z,5.10
2023-05-12T12:20:37.913Z,5.10
2023-05-12T12:25:37.903Z,5.10
2023-05-12T12:30:37.894Z,4.60
2023-05-12T12:35:37.871Z,4.60
2023-05-12T12:40:37.905Z,4.60
2023-05-12T12:45:37.887Z,6.20
2023-05-12T12:50:37.909Z,6.20
2023-05-12T13:00:37.929Z,6.00
2023-05-12T13:05:37.901Z,6.00
2023-05-12T13:10:37.889Z,6.00
2023-05-12T13:15:37.916Z,4.50
2023-05-12T13:20:37.929Z,4.50
2023-05-12T13:25:37.922Z,4.50
2023-05-12T13:30:37.936Z,4.90
2023-05-12T13:35:37.924Z,4.90
2023-05-12T13:40:37.957Z,4.90
2023-05-12T13:45:37.918Z,5.20
2023-05-12T13:50:37.910Z,5.20
2023-05-12T13:55:39.961Z,5.20
2023-05-12T14:00:37.928Z,4.20
2023-05-12T14:05:38.076Z,4.20
2023-05-12T14:10:37.909Z,4.20
2023-05-12T14:15:47.840Z,7.00
2023-05-12T14:20:37.931Z,7.00
2023-05-12T14:25:37.928Z,7.00
2023-05-12T14:30:38.010Z,6.30
2023-05-12T14:35:37.964Z,6.30
2023-05-12T14:40:40.170Z,6.30
2023-05-12T14:45:37.954Z,7.20
2023-05-12T14:50:37.960Z,7.20
2023-05-12T14:55:37.974Z,7.20
2023-05-12T15:00:37.949Z,4.50
2023-05-12T15:05:53.320Z,4.50
2023-05-12T15:10:37.942Z,4.50
2023-05-12T15:15:37.974Z,4.70
2023-05-12T15:20:37.978Z,4.70
2023-05-12T15:25:37.947Z,4.70
2023-05-12T15:30:37.986Z,5.90
2023-05-12T15:35:37.958Z,5.90
2023-05-12T15:40:37.975Z,5.90
2023-05-12T15:45:37.985Z,6.20
2023-05-12T15:50:37.973Z,6.20
2023-05-12T15:55:37.987Z,6.20
2023-05-12T16:00:38.010Z,5.90
2023-05-12T16:05:39.113Z,5.90
2023-05-12T16:10:37.965Z,5.90
2023-05-12T16:15:38.029Z,6.40
2023-05-12T16:20:38.002Z,6.40
2023-05-12T16:25:37.965Z,6.40
2023-05-12T16:30:37.989Z,6.10
2023-05-12T16:35:37.976Z,6.10
2023-05-12T16:40:38.006Z,6.10
2023-05-12T16:45:37.981Z,5.50
2023-05-12T16:50:37.987Z,5.50
2023-05-12T16:55:37.978Z,5.50
2023-05-12T17:00:37.987Z,4.40
2023-05-12T17:15:38.019Z,5.90
2023-05-12T17:25:38.030Z,5.90
2023-05-12T17:30:38.023Z,5.40
2023-05-12T17:35:38.032Z,5.40
2023-05-12T17:40:38.016Z,5.40
2023-05-12T17:45:38.013Z,3.20
2023-05-12T17:50:38.017Z,3.20
2023-05-12T17:55:38.003Z,3.20
2023-05-12T18:00:38.065Z,3.90
2023-05-12T18:05:38.049Z,3.90
2023-05-12T18:10:38.022Z,3.90
2023-05-12T18:15:38.046Z,5.10
2023-05-12T18:20:38.045Z,5.10
2023-05-12T18:25:38.036Z,5.10
2023-05-12T18:30:38.076Z,7.60
2023-05-12T18:35:38.031Z,7.60
2023-05-12T18:40:38.033Z,7.60
2023-05-12T18:45:38.034Z,3.40
2023-05-12T18:50:38.051Z,3.40
2023-05-12T18:55:38.041Z,3.40
2023-05-12T19:00:38.059Z,5.10
2023-05-12T19:05:38.077Z,5.10
2023-05-12T19:10:40.115Z,5.10
2023-05-12T19:15:38.072Z,4.50
2023-05-12T19:20:38.065Z,4.50
2023-05-12T19:30:38.076Z,5.50
2023-05-12T19:35:38.100Z,5.50
2023-05-12T19:40:38.076Z,5.50
2023-05-12T19:45:38.138Z,8.80
2023-05-12T19:50:38.078Z,8.80
2023-05-12T19:55:38.081Z,8.80
2023-05-12T20:00:39.177Z,6.70
2023-05-12T20:05:38.096Z,6.70
2023-05-12T20:10:38.090Z,6.70
2023-05-12T20:15:38.086Z,7.70
2023-05-12T20:20:38.070Z,7.70
2023-05-12T20:30:38.085Z,8.50
2023-05-12T20:35:39.320Z,8.50
2023-05-12T20:40:38.110Z,8.50
2023-05-12T20:45:38.168Z,6.80
2023-05-12T21:00:39.172Z,8.20
2023-05-12T21:05:38.130Z,8.20
2023-05-12T21:10:38.103Z,8.20
2023-05-12T21:15:38.137Z,7.40
2023-05-12T21:20:38.095Z,7.40
2023-05-12T21:25:38.134Z,7.40
2023-05-12T21:30:38.097Z,6.20
2023-05-12T21:35:38.150Z,6.20
2023-05-12T21:40:38.143Z,6.20
2023-05-12T21:45:38.108Z,6.30
2023-05-12T21:50:38.125Z,6.30
2023-05-12T22:00:38.137Z,6.20
2023-05-12T22:05:38.129Z,6.20
2023-05-12T22:15:38.162Z,6.00
2023-05-12T22:30:38.134Z,8.50
2023-05-12T22:40:38.136Z,8.50
2023-05-12T22:55:38.150Z,8.00
2023-05-12T23:05:38.174Z,6.50
2023-05-12T23:15:38.143Z,8.10
2023-05-12T23:25:38.137Z,8.10
2023-05-12T23:30:38.174Z,7.50
2023-05-12T23:35:38.164Z,7.50
2023-05-12T23:40:38.181Z,7.50
2023-05-12T23:45:38.180Z,7.30
2023-05-12T23:55:38.174Z,7.30
